createdAt,value
2018-09-25T00:01:54.097Z,97.00
2018-09-25T00:04:27.907Z,97.00
2018-09-25T00:07:01.613Z,97.00
2018-09-25T00:09:35.495Z,97.00
2018-09-25T00:12:09.294Z,97.00
2018-09-25T00:14:42.914Z,97.00
2018-09-25T00:17:16.663Z,97.00
2018-09-25T00:19:50.291Z,97.00
2018-09-25T00:22:24.052Z,97.00
2018-09-25T00:24:57.849Z,97.00
2018-09-25T00:27:31.612Z,97.00
2018-09-25T00:30:05.309Z,97.00
2018-09-25T00:32:38.987Z,97.00
2018-09-25T00:35:13.702Z,97.00
2018-09-25T00:37:47.539Z,97.00
2018-09-25T00:40:21.101Z,97.00
2018-09-25T00:42:54.988Z,97.00
2018-09-25T00:45:28.736Z,97.00
2018-09-25T00:48:02.476Z,97.00
2018-09-25T00:50:36.158Z,97.00
2018-09-25T00:53:09.958Z,97.00
2018-09-25T00:55:43.638Z,97.00
2018-09-25T00:58:17.499Z,97.00
2018-09-25T01:00:51.494Z,97.00
2018-09-25T01:03:25.113Z,97.00
2018-09-25T01:05:59.309Z,97.00
2018-09-25T01:08:33.273Z,97.00
2018-09-25T01:11:06.986Z,97.00
2018-09-25T01:13:41.164Z,97.00
2018-09-25T01:16:15.257Z,97.00
2018-09-25T01:18:48.919Z,97.00
2018-09-25T01:21:22.645Z,97.00
2018-09-25T01:23:56.547Z,97.00
2018-09-25T01:26:30.392Z,97.00
2018-09-25T01:29:04.302Z,97.00
2018-09-25T01:31:38.324Z,97.00
2018-09-25T01:34:12.267Z,97.00
2018-09-25T01:36:45.933Z,97.00
2018-09-25T01:39:20.313Z,97.00
2018-09-25T01:41:54.015Z,97.00
2018-09-25T01:44:27.723Z,97.00
2018-09-25T01:47:01.490Z,97.00
2018-09-25T01:49:35.474Z,97.00
2018-09-25T01:52:09.358Z,97.00
2018-09-25T01:54:43.237Z,97.00
2018-09-25T01:57:17.897Z,97.00
2018-09-25T01:59:51.472Z,97.00
2018-09-25T02:02:25.416Z,97.00
2018-09-25T02:04:59.233Z,97.00
2018-09-25T02:07:33.131Z,97.00
2018-09-25T02:10:06.811Z,97.00
2018-09-25T02:12:40.429Z,97.00
2018-09-25T02:15:14.086Z,97.00
2018-09-25T02:17:47.911Z,97.00
2018-09-25T02:20:21.589Z,97.00
2018-09-25T02:22:55.491Z,97.00
2018-09-25T02:25:29.320Z,97.00
2018-09-25T02:28:03.095Z,97.00
2018-09-25T02:30:37.097Z,97.00
2018-09-25T02:33:10.859Z,97.00
2018-09-25T02:35:44.555Z,97.00
2018-09-25T02:38:18.921Z,97.00
2018-09-25T02:40:52.631Z,97.00
2018-09-25T02:43:26.358Z,97.00
2018-09-25T02:46:00.159Z,97.00
2018-09-25T02:48:34.057Z,97.00
2018-09-25T02:51:07.887Z,97.00
2018-09-25T02:53:41.659Z,97.00
2018-09-25T02:56:15.560Z,97.00
2018-09-25T02:58:49.432Z,97.00
2018-09-25T03:01:23.392Z,97.00
2018-09-25T03:03:57.109Z,97.00
2018-09-25T03:06:31.073Z,97.00
2018-09-25T03:09:06.211Z,97.00
2018-09-25T03:11:40.868Z,97.00
2018-09-25T03:14:14.705Z,97.00
2018-09-25T03:16:48.576Z,97.00
2018-09-25T03:19:22.874Z,97.00
2018-09-25T03:21:56.730Z,97.00
2018-09-25T03:24:30.407Z,97.00
2018-09-25T03:27:04.116Z,97.00
2018-09-25T03:29:37.740Z,97.00
2018-09-25T03:32:11.633Z,97.00
2018-09-25T03:34:45.287Z,97.00
2018-09-25T03:37:18.954Z,97.00
2018-09-25T03:39:52.828Z,97.00
2018-09-25T03:42:26.598Z,97.00
2018-09-25T03:45:00.266Z,97.00
2018-09-25T03:47:37.600Z,97.00
2018-09-25T03:50:11.236Z,97.00
2018-09-25T03:52:45.153Z,97.00
2018-09-25T03:55:19.095Z,97.00
2018-09-25T03:57:52.804Z,97.00
2018-09-25T04:00:26.618Z,97.00
2018-09-25T04:03:00.404Z,97.00
2018-09-25T04:05:34.333Z,97.00
2018-09-25T04:08:08.203Z,97.00
2018-09-25T04:10:42.126Z,97.00
2018-09-25T04:13:15.767Z,97.00
2018-09-25T04:15:49.445Z,97.00
2018-09-25T04:18:23.309Z,97.00
2018-09-25T04:20:57.146Z,97.00
2018-09-25T04:23:30.801Z,97.00
2018-09-25T04:26:04.468Z,97.00
2018-09-25T04:28:38.202Z,97.00
2018-09-25T04:31:11.987Z,97.00
2018-09-25T04:33:45.843Z,97.00
2018-09-25T04:36:19.491Z,97.00
2018-09-25T04:38:53.293Z,97.00
2018-09-25T04:41:27.184Z,97.00
2018-09-25T04:44:00.953Z,97.00
2018-09-25T04:46:34.722Z,97.00
2018-09-25T04:49:08.367Z,97.00
2018-09-25T04:51:42.087Z,97.00
2018-09-25T04:54:15.774Z,97.00
2018-09-25T04:56:49.660Z,97.00
2018-09-25T04:59:23.521Z,97.00
2018-09-25T05:01:57.620Z,97.00
2018-09-25T05:04:31.665Z,97.00
2018-09-25T05:07:05.456Z,97.00
2018-09-25T05:09:39.493Z,97.00
2018-09-25T05:12:13.309Z,97.00
2018-09-25T05:14:47.616Z,97.00
2018-09-25T05:17:21.336Z,97.00
2018-09-25T05:19:54.971Z,97.00
2018-09-25T05:22:29.698Z,97.00
2018-09-25T05:25:03.925Z,97.00
2018-09-25T05:27:37.962Z,97.00
2018-09-25T05:30:11.801Z,97.00
2018-09-25T05:32:45.433Z,97.00
2018-09-25T05:35:21.366Z,97.00
2018-09-25T05:37:55.655Z,97.00
2018-09-25T05:40:29.471Z,97.00
2018-09-25T05:43:03.099Z,97.00
2018-09-25T05:45:36.848Z,97.00
2018-09-25T05:48:13.566Z,97.00
2018-09-25T05:50:47.415Z,97.00
2018-09-25T05:53:21.284Z,97.00
2018-09-25T05:55:54.910Z,97.00
2018-09-25T05:58:28.544Z,97.00
2018-09-25T06:01:02.368Z,97.00
2018-09-25T06:03:36.223Z,97.00
2018-09-25T06:06:09.922Z,97.00
2018-09-25T06:08:43.862Z,97.00
2018-09-25T06:11:17.631Z,97.00
2018-09-25T06:13:51.405Z,97.00
2018-09-25T06:16:25.213Z,97.00
2018-09-25T06:18:58.837Z,97.00
2018-09-25T06:21:32.467Z,97.00
2018-09-25T06:24:06.075Z,97.00
2018-09-25T06:26:39.855Z,97.00
2018-09-25T06:29:13.785Z,97.00
2018-09-25T06:31:47.471Z,97.00
2018-09-25T06:34:21.156Z,97.00
2018-09-25T06:36:54.865Z,97.00
2018-09-25T06:39:28.512Z,97.00
2018-09-25T06:42:02.382Z,97.00
2018-09-25T06:44:36.533Z,97.00
2018-09-25T06:47:11.124Z,97.00
2018-09-25T06:49:44.833Z,97.00
2018-09-25T06:52:18.541Z,97.00
2018-09-25T06:54:52.390Z,97.00
2018-09-25T06:57:27.510Z,97.00
2018-09-25T07:00:01.151Z,97.00
2018-09-25T07:02:34.824Z,97.00
2018-09-25T07:05:09.427Z,97.00
2018-09-25T07:07:43.104Z,97.00
2018-09-25T07:10:16.844Z,97.00
2018-09-25T07:12:50.436Z,97.00
2018-09-25T07:15:24.209Z,97.00
2018-09-25T07:17:57.776Z,97.00
2018-09-25T07:20:31.394Z,97.00
2018-09-25T07:23:05.133Z,97.00
2018-09-25T07:25:38.904Z,97.00
2018-09-25T07:28:12.640Z,97.00
2018-09-25T07:30:46.140Z,97.00
2018-09-25T07:33:20.255Z,97.00
2018-09-25T07:35:53.965Z,97.00
2018-09-25T07:38:27.821Z,97.00
2018-09-25T07:41:02.510Z,97.00
2018-09-25T07:43:36.448Z,97.00
2018-09-25T07:46:10.051Z,97.00
2018-09-25T07:48:43.671Z,97.00
2018-09-25T07:51:17.255Z,97.00
2018-09-25T07:53:50.890Z,97.00
2018-09-25T07:56:24.862Z,97.00
2018-09-25T07:58:58.432Z,97.00
2018-09-25T08:01:32.049Z,97.00
2018-09-25T08:04:05.638Z,97.00
2018-09-25T08:06:39.327Z,97.00
2018-09-25T08:09:13.867Z,97.00
2018-09-25T08:11:47.795Z,97.00
2018-09-25T08:14:21.441Z,97.00
2018-09-25T08:16:55.259Z,97.00
2018-09-25T08:19:28.944Z,97.00
2018-09-25T08:22:02.760Z,97.00
2018-09-25T08:24:36.282Z,97.00
2018-09-25T08:27:09.994Z,97.00
2018-09-25T08:29:43.856Z,97.00
2018-09-25T08:32:17.458Z,97.00
2018-09-25T08:34:51.291Z,97.00
2018-09-25T08:37:25.118Z,97.00
2018-09-25T08:39:58.988Z,97.00
2018-09-25T08:42:32.606Z,97.00
2018-09-25T08:45:06.141Z,97.00
2018-09-25T08:47:39.809Z,97.00
2018-09-25T08:50:13.482Z,97.00
2018-09-25T08:52:47.894Z,97.00
2018-09-25T08:55:22.389Z,97.00
2018-09-25T08:57:56.222Z,97.00
2018-09-25T09:00:29.869Z,97.00
2018-09-25T09:03:03.467Z,97.00
2018-09-25T09:05:37.122Z,97.00
2018-09-25T09:08:11.003Z,97.00
2018-09-25T09:10:44.700Z,97.00
2018-09-25T09:13:18.421Z,97.00
2018-09-25T09:15:52.090Z,97.00
2018-09-25T09:18:27.956Z,97.00
2018-09-25T09:21:01.782Z,97.00
2018-09-25T09:23:35.585Z,97.00
2018-09-25T09:26:09.363Z,96.20
2018-09-25T09:28:43.147Z,96.00
2018-09-25T09:31:16.907Z,95.70
2018-09-25T09:33:50.712Z,96.10
2018-09-25T09:36:24.459Z,96.50
2018-09-25T09:38:58.111Z,95.30
2018-09-25T09:41:32.022Z,94.70
2018-09-25T09:44:05.485Z,95.80
2018-09-25T09:46:39.236Z,96.10
2018-09-25T09:49:13.092Z,95.00
2018-09-25T09:51:46.995Z,94.10
2018-09-25T09:54:20.861Z,93.30
2018-09-25T09:56:54.623Z,93.40
2018-09-25T09:59:28.530Z,93.20
2018-09-25T10:02:02.170Z,92.20
2018-09-25T10:04:35.964Z,92.00
2018-09-25T10:07:09.596Z,91.00
2018-09-25T10:09:43.353Z,89.20
2018-09-25T10:12:17.241Z,90.50
2018-09-25T10:14:50.825Z,88.10
2018-09-25T10:17:24.478Z,88.80
2018-09-25T10:19:58.301Z,89.00
2018-09-25T10:22:31.926Z,87.60
2018-09-25T10:25:06.478Z,87.90
2018-09-25T10:27:40.276Z,87.30
2018-09-25T10:30:13.919Z,87.20
2018-09-25T10:32:47.653Z,87.30
2018-09-25T10:35:21.338Z,86.60
2018-09-25T10:37:55.005Z,87.00
2018-09-25T10:40:28.876Z,87.20
2018-09-25T10:43:02.733Z,87.10
2018-09-25T10:45:36.349Z,88.40
2018-09-25T10:48:10.069Z,87.90
2018-09-25T10:50:43.823Z,87.50
2018-09-25T10:53:17.539Z,86.80
2018-09-25T10:55:54.828Z,86.60
2018-09-25T10:58:28.306Z,84.90
2018-09-25T11:01:01.912Z,84.70
2018-09-25T11:03:35.533Z,84.40
2018-09-25T11:06:09.144Z,82.90
2018-09-25T11:08:42.953Z,83.00
2018-09-25T11:11:16.565Z,82.40
2018-09-25T11:13:50.392Z,83.40
2018-09-25T11:16:24.249Z,80.80
2018-09-25T11:18:57.975Z,82.00
2018-09-25T11:21:31.786Z,82.70
2018-09-25T11:24:05.405Z,82.50
2018-09-25T11:26:39.011Z,81.70
2018-09-25T11:29:12.606Z,81.30
2018-09-25T11:31:46.286Z,81.40
2018-09-25T11:34:19.956Z,81.20
2018-09-25T11:36:53.551Z,81.00
2018-09-25T11:39:27.287Z,80.30
2018-09-25T11:42:00.946Z,79.20
2018-09-25T11:44:34.723Z,79.20
2018-09-25T11:47:08.405Z,79.80
2018-09-25T11:49:42.232Z,78.30
2018-09-25T11:52:15.964Z,78.80
2018-09-25T11:54:49.681Z,80.10
2018-09-25T11:57:23.297Z,81.50
2018-09-25T11:59:56.912Z,80.80
2018-09-25T12:02:30.573Z,79.80
2018-09-25T12:05:04.380Z,80.30
2018-09-25T12:07:38.272Z,79.90
2018-09-25T12:10:12.277Z,79.50
2018-09-25T12:12:46.101Z,78.70
2018-09-25T12:15:19.947Z,76.60
2018-09-25T12:17:53.754Z,77.00
2018-09-25T12:20:27.566Z,76.40
2018-09-25T12:23:01.485Z,77.30
2018-09-25T12:25:35.173Z,78.70
2018-09-25T12:28:08.981Z,77.90
2018-09-25T12:30:42.668Z,76.60
2018-09-25T12:33:16.297Z,76.60
2018-09-25T12:35:49.910Z,77.00
2018-09-25T12:38:24.738Z,76.70
2018-09-25T12:40:58.491Z,78.50
2018-09-25T12:43:32.281Z,78.60
2018-09-25T12:46:06.040Z,78.80
2018-09-25T12:48:39.983Z,78.00
2018-09-25T12:51:13.846Z,77.50
2018-09-25T12:53:47.709Z,77.10
2018-09-25T12:56:21.481Z,77.70
2018-09-25T12:58:55.929Z,78.10
2018-09-25T13:01:29.810Z,79.10
2018-09-25T13:04:03.822Z,78.00
2018-09-25T13:06:37.425Z,75.00
2018-09-25T13:09:13.839Z,75.00
2018-09-25T13:11:48.800Z,74.70
2018-09-25T13:14:22.685Z,74.90
2018-09-25T13:16:56.364Z,74.40
2018-09-25T13:19:30.262Z,75.60
2018-09-25T13:22:04.152Z,76.80
2018-09-25T13:24:38.093Z,77.50
2018-09-25T13:27:11.778Z,77.80
2018-09-25T13:29:45.461Z,78.10
2018-09-25T13:32:19.164Z,79.50
2018-09-25T13:34:52.868Z,80.50
2018-09-25T13:37:26.665Z,81.50
2018-09-25T13:40:00.377Z,82.80
2018-09-25T13:42:34.287Z,82.00
2018-09-25T13:45:08.026Z,81.40
2018-09-25T13:47:41.816Z,80.20
2018-09-25T13:50:15.639Z,79.50
2018-09-25T13:52:49.336Z,77.70
2018-09-25T13:55:22.982Z,76.00
2018-09-25T13:57:56.745Z,74.30
2018-09-25T14:00:30.537Z,72.00
2018-09-25T14:03:04.301Z,72.00
2018-09-25T14:05:38.090Z,70.20
2018-09-25T14:08:11.854Z,68.90
2018-09-25T14:10:45.655Z,68.40
2018-09-25T14:13:19.260Z,69.10
2018-09-25T14:15:52.957Z,69.60
2018-09-25T14:18:26.899Z,69.00
2018-09-25T14:21:00.595Z,69.20
2018-09-25T14:23:34.294Z,70.30
2018-09-25T14:26:07.879Z,70.00
2018-09-25T14:28:41.602Z,70.50
2018-09-25T14:31:15.295Z,70.80
2018-09-25T14:33:48.958Z,70.30
2018-09-25T14:36:23.904Z,70.00
2018-09-25T14:38:58.081Z,69.60
2018-09-25T14:41:34.019Z,68.30
2018-09-25T14:44:07.960Z,68.40
2018-09-25T14:46:41.726Z,67.30
2018-09-25T14:49:15.728Z,66.00
2018-09-25T14:51:49.376Z,65.90
2018-09-25T14:54:23.127Z,65.30
2018-09-25T14:56:56.990Z,66.20
2018-09-25T14:59:30.816Z,66.40
2018-09-25T15:02:04.480Z,65.90
2018-09-25T15:04:38.897Z,65.90
2018-09-25T15:07:12.695Z,66.50
2018-09-25T15:09:46.327Z,65.40
2018-09-25T15:12:20.134Z,66.30
2018-09-25T15:14:53.828Z,66.50
2018-09-25T15:17:27.768Z,66.70
2018-09-25T15:20:01.307Z,65.50
2018-09-25T15:22:35.235Z,65.90
2018-09-25T15:25:08.988Z,64.70
2018-09-25T15:27:42.838Z,64.50
2018-09-25T15:30:16.394Z,65.00
2018-09-25T15:32:50.064Z,66.00
2018-09-25T15:35:23.864Z,66.30
2018-09-25T15:37:57.350Z,67.10
2018-09-25T15:40:31.080Z,67.20
2018-09-25T15:43:04.784Z,67.90
2018-09-25T15:45:38.493Z,67.70
2018-09-25T15:48:12.230Z,67.80
2018-09-25T15:50:45.863Z,68.00
2018-09-25T15:53:19.698Z,68.20
2018-09-25T15:55:53.406Z,67.90
2018-09-25T15:58:27.044Z,68.80
2018-09-25T16:01:00.704Z,70.40
2018-09-25T16:03:34.449Z,71.00
2018-09-25T16:06:08.300Z,71.30
2018-09-25T16:08:42.088Z,72.10
2018-09-25T16:11:16.264Z,72.50
2018-09-25T16:13:50.105Z,71.90
2018-09-25T16:16:24.072Z,72.20
2018-09-25T16:18:57.673Z,72.10
2018-09-25T16:21:32.051Z,72.20
2018-09-25T16:24:05.693Z,73.40
2018-09-25T16:26:39.295Z,75.40
2018-09-25T16:29:12.866Z,76.60
2018-09-25T16:31:46.502Z,77.20
2018-09-25T16:34:20.250Z,76.90
2018-09-25T16:36:53.921Z,77.20
2018-09-25T16:39:27.773Z,77.60
2018-09-25T16:42:01.486Z,78.50
2018-09-25T16:44:35.184Z,79.10
2018-09-25T16:47:09.082Z,80.40
2018-09-25T16:49:43.193Z,81.40
2018-09-25T16:52:16.936Z,81.10
2018-09-25T16:54:51.959Z,82.20
2018-09-25T16:57:25.749Z,83.50
2018-09-25T16:59:59.426Z,84.90
2018-09-25T17:02:33.851Z,85.60
2018-09-25T17:05:07.470Z,85.50
2018-09-25T17:07:42.099Z,86.00
2018-09-25T17:10:15.850Z,86.60
2018-09-25T17:12:49.660Z,88.40
2018-09-25T17:15:25.163Z,89.70
2018-09-25T17:17:58.940Z,91.60
2018-09-25T17:20:32.716Z,91.40
2018-09-25T17:23:06.806Z,93.00
2018-09-25T17:25:40.380Z,93.50
2018-09-25T17:28:13.951Z,93.20
2018-09-25T17:30:47.733Z,94.20
2018-09-25T17:33:21.626Z,95.30
2018-09-25T17:35:55.373Z,96.30
2018-09-25T17:38:29.058Z,96.40
2018-09-25T17:41:02.929Z,97.00
2018-09-25T17:43:36.772Z,97.00
2018-09-25T17:46:10.549Z,97.00
2018-09-25T17:48:44.974Z,97.00
2018-09-25T17:51:18.809Z,97.00
2018-09-25T17:53:52.999Z,97.00
2018-09-25T17:56:33.398Z,97.00
2018-09-25T17:59:07.070Z,97.00
2018-09-25T18:01:40.791Z,97.00
2018-09-25T18:04:14.409Z,97.00
2018-09-25T18:06:48.045Z,97.00
2018-09-25T18:09:21.664Z,97.00
2018-09-25T18:11:55.587Z,97.00
2018-09-25T18:14:29.368Z,97.00
2018-09-25T18:17:03.130Z,97.00
2018-09-25T18:19:37.991Z,97.00
2018-09-25T18:22:12.137Z,97.00
2018-09-25T18:24:46.038Z,97.00
2018-09-25T18:27:19.708Z,97.00
2018-09-25T18:29:53.460Z,97.00
2018-09-25T18:32:27.373Z,97.00
2018-09-25T18:35:01.267Z,97.00
2018-09-25T18:37:35.115Z,97.00
2018-09-25T18:40:08.698Z,97.00
2018-09-25T18:42:42.698Z,97.00
2018-09-25T18:45:16.426Z,97.00
2018-09-25T18:47:50.277Z,97.00
2018-09-25T18:50:23.972Z,97.00
2018-09-25T18:52:57.731Z,97.00
2018-09-25T18:55:31.384Z,97.00
2018-09-25T18:58:05.032Z,97.00
2018-09-25T19:00:39.216Z,97.00
2018-09-25T19:03:13.983Z,97.00
2018-09-25T19:05:53.891Z,97.00
2018-09-25T19:08:27.712Z,97.00
2018-09-25T19:11:01.876Z,97.00
2018-09-25T19:13:39.284Z,97.00
2018-09-25T19:16:12.904Z,97.00
2018-09-25T19:18:46.681Z,97.00
2018-09-25T19:21:20.529Z,97.00
2018-09-25T19:23:54.274Z,97.00
2018-09-25T19:26:27.899Z,97.00
2018-09-25T19:29:01.498Z,97.00
2018-09-25T19:31:35.026Z,97.00
2018-09-25T19:34:09.128Z,97.00
2018-09-25T19:36:42.722Z,97.00
2018-09-25T19:39:16.637Z,97.00
2018-09-25T19:41:50.455Z,97.00
2018-09-25T19:44:24.421Z,97.00
2018-09-25T19:46:58.189Z,97.00
2018-09-25T19:49:32.232Z,97.00
2018-09-25T19:52:06.901Z,97.00
2018-09-25T19:54:40.793Z,97.00
2018-09-25T19:57:14.705Z,97.00
2018-09-25T19:59:49.711Z,97.00
2018-09-25T20:02:23.488Z,97.00
2018-09-25T20:04:57.404Z,97.00
2018-09-25T20:07:31.265Z,97.00
2018-09-25T20:10:05.170Z,97.00
2018-09-25T20:12:39.200Z,97.00
2018-09-25T20:15:13.090Z,97.00
2018-09-25T20:17:46.873Z,97.00
2018-09-25T20:20:20.752Z,97.00
2018-09-25T20:22:55.759Z,97.00
2018-09-25T20:25:29.636Z,97.00
2018-09-25T20:28:03.367Z,97.00
2018-09-25T20:30:37.160Z,97.00
2018-09-25T20:33:11.511Z,97.00
2018-09-25T20:35:45.245Z,97.00
2018-09-25T20:38:18.911Z,97.00
2018-09-25T20:40:53.003Z,97.00
2018-09-25T20:43:26.640Z,97.00
2018-09-25T20:46:00.455Z,97.00
2018-09-25T20:48:41.823Z,97.00
2018-09-25T20:51:15.694Z,97.00
2018-09-25T20:53:49.418Z,97.00
2018-09-25T20:56:23.120Z,97.00
2018-09-25T20:58:56.896Z,97.00
2018-09-25T21:01:30.677Z,97.00
2018-09-25T21:04:05.309Z,97.00
2018-09-25T21:06:39.077Z,97.00
2018-09-25T21:09:14.136Z,97.00
2018-09-25T21:11:48.068Z,97.00
2018-09-25T21:14:21.885Z,97.00
2018-09-25T21:16:55.952Z,97.00
2018-09-25T21:19:29.822Z,97.00
2018-09-25T21:22:04.922Z,97.00
2018-09-25T21:24:38.563Z,97.00
2018-09-25T21:27:13.104Z,97.00
2018-09-25T21:29:46.822Z,97.00
2018-09-25T21:32:20.408Z,97.00
2018-09-25T21:34:54.132Z,97.00
2018-09-25T21:37:28.000Z,97.00
2018-09-25T21:40:01.695Z,97.00
2018-09-25T21:42:35.455Z,97.00
2018-09-25T21:45:09.346Z,97.00
2018-09-25T21:47:42.971Z,97.00
2018-09-25T21:50:16.773Z,97.00
2018-09-25T21:52:50.569Z,97.00
2018-09-25T21:55:24.422Z,97.00
2018-09-25T21:57:58.114Z,97.00
2018-09-25T22:00:31.929Z,97.00
2018-09-25T22:03:05.600Z,97.00
2018-09-25T22:05:39.264Z,97.00
2018-09-25T22:08:12.981Z,97.00
2018-09-25T22:10:46.825Z,97.00
2018-09-25T22:13:20.678Z,97.00
2018-09-25T22:15:54.437Z,97.00
2018-09-25T22:18:28.259Z,97.00
2018-09-25T22:21:01.876Z,97.00
2018-09-25T22:23:35.664Z,97.00
2018-09-25T22:26:09.602Z,97.00
2018-09-25T22:28:43.383Z,97.00
2018-09-25T22:31:17.017Z,97.00
2018-09-25T22:33:50.666Z,97.00
2018-09-25T22:36:24.367Z,97.00
2018-09-25T22:38:58.195Z,97.00
2018-09-25T22:41:32.046Z,97.00
2018-09-25T22:44:05.931Z,97.00
2018-09-25T22:46:39.719Z,97.00
2018-09-25T22:49:13.688Z,97.00
2018-09-25T22:51:47.493Z,97.00
2018-09-25T22:54:21.155Z,97.00
2018-09-25T22:56:54.846Z,97.00
2018-09-25T22:59:28.884Z,97.00
2018-09-25T23:02:02.650Z,97.00
2018-09-25T23:04:36.518Z,97.00
2018-09-25T23:07:10.914Z,97.00
2018-09-25T23:09:44.629Z,97.00
2018-09-25T23:12:18.346Z,97.00
2018-09-25T23:14:52.165Z,97.00
2018-09-25T23:17:25.799Z,97.00
2018-09-25T23:19:59.430Z,97.00
2018-09-25T23:22:33.376Z,97.00
2018-09-25T23:25:07.164Z,97.00
2018-09-25T23:27:42.093Z,97.00
2018-09-25T23:30:16.992Z,97.00
2018-09-25T23:32:50.618Z,97.00
2018-09-25T23:35:24.161Z,97.00
2018-09-25T23:37:58.636Z,97.00
2018-09-25T23:40:32.106Z,97.00
2018-09-25T23:43:06.653Z,97.00
2018-09-25T23:45:46.437Z,97.00
2018-09-25T23:48:20.443Z,97.00
2018-09-25T23:50:55.779Z,97.00
2018-09-25T23:53:32.284Z,97.00
2018-09-25T23:56:06.991Z,97.00
2018-09-25T23:58:40.900Z,97.00
